Caledon, Canada
Current Conditions -  °F | °C
As of 9:00 PM on Saturday 25 Oct 2014 (Local Time) from CYYZ Reporting Station
Few Clouds Few Clouds  
Wind Chill: 54°   Ceiling: Unl
Heat Index: 54°   Visibility: 15mi
Dew Point: 39°   Wind: 17mph
Humidity: 58%   Direction: 320°NW
Pressure: 29.64"   Gusts: 24mph
Location:  43.87°N, 80°W
Report Text: CYYZ 260100Z 32015G21KT 15SM FEW035 12/04 A2964 RMK SC2 SLP038 DENSITY ALT 600FT
Loading
Personal Weather Stations






























Interactive Weather Map
Tropical Storm Tracking
New forecast layout! Learn more

10-Day Weather Forecast

Advertisements
Track Severe Weather on mobile